IRONMAN Tallinn 2018
Skip Navigation Links
Results
Course Map
Details
4 Aug 2018
HyperLink
Page 1 of 1 (40 items)
Pos
Race No
Fav
Name
Time
Category
Cat Pos
Gender
Gen Pos
Club
Country
Pace
Lap1
O/Pos
Lap2
O/Pos
Lap3
O/Pos
Lap4
O/Pos
14Arturs Liepa00:06:29B1Male1 LAT  00:01:24100:03:00100:04:42100:06:281
27Gregor Rasva00:07:05C1Male2 EST  00:01:35400:03:22300:05:12200:07:042
345Matvei Starikov00:07:12B2Male3 EST  00:01:45900:03:29700:05:12300:07:093
452Rihard Viherpuu00:07:14B3Male4 EST  00:01:28200:03:20200:05:15400:07:124
522Raigo Tischler00:07:15B4Male5 EST  00:01:37600:03:28600:05:21600:07:125
642Maria Liis Alt00:07:18C1Female1 EST  00:01:36500:03:25400:05:19500:07:176
732Gert Martin Savitsch00:07:24C2Male6Tabasalu TriatloniklubiEST  00:01:40700:03:30800:05:24700:07:227
820Oliver Piller00:07:37C3Male7 EST  00:01:471000:03:39900:05:36900:07:348
92Anton Makarov00:07:46B5Male8 GER  00:01:33300:03:29500:05:35800:07:439
1034Hanna-Liisa Värik00:07:47C2Female2Tabasalu TriatloniklubiEST  00:01:44800:03:411000:05:401000:07:4410
1133Grete Maria Savitsch00:08:04B1Female3Tabasalu TriatloniklubiEST  00:01:481100:03:511100:05:581100:08:0211
1257Karl Ramses Tiislär00:08:11B6Male9 EST  00:01:571900:03:581700:06:041500:08:0712
1361Denis Smirnov00:08:14C4Male10 EST  00:01:531600:03:571600:06:011200:08:1013
1430Arti Piirmaa00:08:15C5Male11Paide UjumisklubiEST  00:01:481200:03:561300:06:051400:08:1214
1559Franz Andersson00:08:19C6Male12 EST  00:01:491300:03:541200:06:041300:08:1615
1656Karl Rasmus Tiislär00:08:22B7Male13 EST  00:01:582100:04:041800:06:121800:08:1716
1760Nora Miller00:08:25C3Female4 EST  00:01:501500:03:581500:06:071600:08:2217
1815Marleene Randmaa00:08:30C4Female5Paide UjumisklubiEST  00:02:002000:04:102000:06:222000:08:2818
1924Richard Marcus Arge00:08:30C7Male14Jetoil ASEST  00:01:491400:03:581400:06:111700:08:2719
2031Carmen Piiroja00:08:32B2Female6 EST  00:02:002600:04:071900:06:161900:08:2920
2125Robert Sammel00:08:36C8Male15Vinni VAKEST  00:02:002300:04:112300:06:252300:08:3321
2235Hanna-Marleen Mõtsnik00:08:36C5Female721CC TriatloniklubiEST  00:02:012400:04:112100:06:232100:08:3422
2323Rica Veevo00:08:38C6Female8Tartu UjumisklubiEST  00:02:002200:04:112200:06:242200:08:3523
2449Ron Berg00:08:55C9Male16 EST  00:02:022900:04:222600:06:392500:08:5024
2537James Harries00:09:05B8Male17 GBR  00:01:571800:04:142400:06:392400:09:0125
2644Silver Piiroja00:09:06B9Male18 EST  00:02:022700:04:222500:06:492600:09:0326
2716Matis Prommik00:09:27C10Male19 EST  00:02:043000:04:323000:07:012800:09:2327
2853Jekaterina Vorontsova00:09:36C7Female9 EST  00:02:002800:04:252700:06:562700:09:3328
299Herman Särk00:09:50C11Male20 EST  00:02:012500:04:292800:07:162900:09:4829
3013Laureen Tõnisson00:10:02C8Female10 EST  00:01:591700:04:312900:07:163000:09:5930
3110Katariina Veerpalu00:10:04C9Female11 EST  00:02:153500:04:513300:07:313200:09:5931
3250Lisette Maria Lassel00:10:14C10Female12 EST  00:02:153400:04:503200:07:313100:10:1032
3341Lev Chekunaev00:10:15C12Male21 RUS  00:02:133300:04:513400:07:323400:10:1033
3447Kateleen Bruchez00:10:28C11Female13 SUI  00:02:103100:04:483100:07:313300:10:2434
3554Maria Vorontsova00:11:08C12Female14 EST  00:02:103200:05:033500:08:063500:11:0435
1Alex MaguireDNSBMale IRL  
6Christopher MarkhamDNSCMale GBR  
21Peter MarkhamDNSBMale GBR  
26Smaragda Luchia SaranaDNSBFemale EST  
38Juri KaletinDNSBMale EST  
Page 1 of 1 (40 items)

HyperLink Copyright (c) G Vincent, 2018